Costa Romantica — IBCR — position and weather

sailwx.info

Track history (hours):
 
Tides and Currents Weather Stations Pressure Air Temp Water Temp Dewpoint Dewpoint Depression Visibility Wind Speed Wind Dir Waves Ship Positions

Costa Romantica

Last reported at 2018-Feb-16 13:29 UTC. Time now 2018-Feb-19 10:14 UTC.
Position N 23°31' E 118°09'.

Length 221 m; draft 7.8 m.

Type: Ship. MMSI: 247817000.

Date/timePositionNaut miles runAvg speedWind from/ knotsBaromVisibWave heightAir tempDewpointWater temp
2018-Feb-16 13:29N 23°31' E 118°09'5715.9
2018-Feb-16 09:54N 24°05' E 118°59'14817.2
2018-Feb-16 01:18N 25°35' E 121°08'618.0
2018-Feb-16 01:00N 25°39' E 121°13'173 4.1
2018-Feb-14 07:00N 24°23' E 124°04'5 0.7
2018-Feb-13 23:28N 24°20' E 124°09'3211.7
2018-Feb-13 20:42N 24°43' E 123°43'315.4
2018-Feb-13 20:29N 24°46' E 123°41'815.4
2018-Feb-13 20:00N 24°51' E 123°36'815.3
2018-Feb-13 19:30N 24°57' E 123°31'815.4
2018-Feb-13 19:00N 25°03' E 123°26'815.4
2018-Feb-13 18:30N 25°09' E 123°20'815.9
2018-Feb-13 18:00N 25°16' E 123°15'12214.5
2018-Feb-13 09:37N 25°32' E 121°01'215.5
2018-Feb-13 09:30N 25°31' E 120°59'915.7
2018-Feb-13 08:55N 25°27' E 120°51'716.4
2018-Feb-13 08:30N 25°23' E 120°44'13016.2
2018-Feb-13 00:30N 24°05' E 118°50'817.0
2018-Feb-13 00:00N 23°59' E 118°43'1716.9
2018-Feb-12 23:00N 23°47' E 118°30'1317.0
2018-Feb-12 22:13N 23°39' E 118°19'517.3
2018-Feb-12 21:55N 23°36' E 118°14'717.2
2018-Feb-12 21:30N 23°31' E 118°08'917.0
2018-Feb-12 20:57N 23°25' E 118°00'816.8
2018-Feb-12 20:30N 23°20' E 117°54'816.4
2018-Feb-12 20:00N 23°15' E 117°47'  
2018-Feb-10 10:44N 16°10' E 108°13'210.7
2018-Feb-10 10:30N 16°08' E 108°12'1 2.7
2018-Feb-10 10:00N 16°07' E 108°13'0 0.0
2018-Feb-10 09:27N 16°07' E 108°13'0 0.0
2018-Feb-10 09:00N 16°07' E 108°13'0 0.0
2018-Feb-10 08:30N 16°07' E 108°13'0 0.0
2018-Feb-10 08:00N 16°07' E 108°13'0 0.0
2018-Feb-10 07:30N 16°07' E 108°13'0 0.0
2018-Feb-10 07:00N 16°07' E 108°13'0 0.0
2018-Feb-10 06:30N 16°07' E 108°13'0 0.0
2018-Feb-10 06:00N 16°07' E 108°13'0 0.0
2018-Feb-10 05:30N 16°07' E 108°13'0 0.0
2018-Feb-10 05:00N 16°07' E 108°13'0 0.0
2018-Feb-10 04:30N 16°07' E 108°13'0 0.0
2018-Feb-10 04:00N 16°07' E 108°13'0 0.0
2018-Feb-10 03:30N 16°07' E 108°13'0 0.0
2018-Feb-10 03:00N 16°07' E 108°13'0 0.0
2018-Feb-10 02:30N 16°07' E 108°13'0 0.0
2018-Feb-10 02:00N 16°07' E 108°13'0 0.0
2018-Feb-10 01:30N 16°07' E 108°13'0 0.0
2018-Feb-10 01:00N 16°07' E 108°13'0 0.0
2018-Feb-10 00:30N 16°07' E 108°13'0 0.6
2018-Feb-10 00:00N 16°07' E 108°13'2 4.8
2018-Feb-09 23:30N 16°09' E 108°12'5 9.0
2018-Feb-09 22:59N 16°11' E 108°16'5 6.4
2018-Feb-09 22:09N 16°11' E 108°22'  
Track history (hours):
 
Tides and Currents Weather Stations Pressure Air Temp Water Temp Dewpoint Dewpoint Depression Visibility Wind Speed Wind Dir Waves Ship Positions

Costa Romantica

Last reported at 2018-Feb-16 13:29 UTC. Time now 2018-Feb-19 10:14 UTC.
Position N 23°31' E 118°09'.

Length 221 m; draft 7.8 m.

Type: Ship. MMSI: 247817000.

Date/timePositionNaut miles runAvg speedWind from/ knotsBaromVisibWave heightAir tempDewpointWater temp
2018-Feb-16 13:29N 23°31' E 118°09'5715.9
2018-Feb-16 09:54N 24°05' E 118°59'14817.2
2018-Feb-16 01:18N 25°35' E 121°08'618.0
2018-Feb-16 01:00N 25°39' E 121°13'173 4.1
2018-Feb-14 07:00N 24°23' E 124°04'5 0.7
2018-Feb-13 23:28N 24°20' E 124°09'3211.7
2018-Feb-13 20:42N 24°43' E 123°43'315.4
2018-Feb-13 20:29N 24°46' E 123°41'815.4
2018-Feb-13 20:00N 24°51' E 123°36'815.3
2018-Feb-13 19:30N 24°57' E 123°31'815.4
2018-Feb-13 19:00N 25°03' E 123°26'815.4
2018-Feb-13 18:30N 25°09' E 123°20'815.9
2018-Feb-13 18:00N 25°16' E 123°15'12214.5
2018-Feb-13 09:37N 25°32' E 121°01'215.5
2018-Feb-13 09:30N 25°31' E 120°59'915.7
2018-Feb-13 08:55N 25°27' E 120°51'716.4
2018-Feb-13 08:30N 25°23' E 120°44'13016.2
2018-Feb-13 00:30N 24°05' E 118°50'817.0
2018-Feb-13 00:00N 23°59' E 118°43'1716.9
2018-Feb-12 23:00N 23°47' E 118°30'1317.0
2018-Feb-12 22:13N 23°39' E 118°19'517.3
2018-Feb-12 21:55N 23°36' E 118°14'717.2
2018-Feb-12 21:30N 23°31' E 118°08'917.0
2018-Feb-12 20:57N 23°25' E 118°00'816.8
2018-Feb-12 20:30N 23°20' E 117°54'816.4
2018-Feb-12 20:00N 23°15' E 117°47'  
2018-Feb-10 10:44N 16°10' E 108°13'210.7
2018-Feb-10 10:30N 16°08' E 108°12'1 2.7
2018-Feb-10 10:00N 16°07' E 108°13'0 0.0
2018-Feb-10 09:27N 16°07' E 108°13'0 0.0
2018-Feb-10 09:00N 16°07' E 108°13'0 0.0
2018-Feb-10 08:30N 16°07' E 108°13'0 0.0
2018-Feb-10 08:00N 16°07' E 108°13'0 0.0
2018-Feb-10 07:30N 16°07' E 108°13'0 0.0
2018-Feb-10 07:00N 16°07' E 108°13'0 0.0
2018-Feb-10 06:30N 16°07' E 108°13'0 0.0
2018-Feb-10 06:00N 16°07' E 108°13'0 0.0
2018-Feb-10 05:30N 16°07' E 108°13'0 0.0
2018-Feb-10 05:00N 16°07' E 108°13'0 0.0
2018-Feb-10 04:30N 16°07' E 108°13'0 0.0
2018-Feb-10 04:00N 16°07' E 108°13'0 0.0
2018-Feb-10 03:30N 16°07' E 108°13'0 0.0
2018-Feb-10 03:00N 16°07' E 108°13'0 0.0
2018-Feb-10 02:30N 16°07' E 108°13'0 0.0
2018-Feb-10 02:00N 16°07' E 108°13'0 0.0
2018-Feb-10 01:30N 16°07' E 108°13'0 0.0
2018-Feb-10 01:00N 16°07' E 108°13'0 0.0
2018-Feb-10 00:30N 16°07' E 108°13'0 0.6
2018-Feb-10 00:00N 16°07' E 108°13'2 4.8
2018-Feb-09 23:30N 16°09' E 108°12'5 9.0
2018-Feb-09 22:59N 16°11' E 108°16'5 6.4
2018-Feb-09 22:09N 16°11' E 108°22'  

Dump ship's entire track history